Time;durP1;ratioP1;P1;durP2;ratioP2;P2;SDS_P1;SDS_P2;PMS_P1;PMS_P2;Temp;Humidity;BMP_temperature;BMP_pressure;BME280_temperature;BME280_humidity;BME280_pressure;Samples;Min_cycle;Max_cycle;Signal;HPM_P1;HPM_P2
2022/09/06 00:03:17;;;;;;;22.23;17.65;;;;;;;12.62;100.00;97098.56;10372831;28;20189;-72
2022/09/06 00:08:18;;;;;;;20.02;17.38;;;;;;;12.48;100.00;97103.44;10372363;28;20200;-72
2022/09/06 00:13:18;;;;;;;20.73;15.63;;;;;;;12.57;100.00;97101.69;10372124;28;20228;-72
2022/09/06 00:18:18;;;;;;;18.60;16.70;;;;;;;12.50;100.00;97084.91;10372110;28;20288;-71
2022/09/06 00:23:19;;;;;;;20.42;17.13;;;;;;;12.39;100.00;97087.78;10371980;28;20201;-72
2022/09/06 00:28:19;;;;;;;18.17;15.93;;;;;;;12.18;100.00;97080.34;10371778;28;20197;-73
2022/09/06 00:33:19;;;;;;;18.48;16.52;;;;;;;12.12;100.00;97074.72;10371544;28;20323;-73
2022/09/06 00:38:20;;;;;;;17.48;15.45;;;;;;;12.27;100.00;97077.59;10370890;28;20217;-72
2022/09/06 00:43:20;;;;;;;18.95;16.60;;;;;;;12.16;100.00;97064.75;10371174;28;20200;-72
2022/09/06 00:48:21;;;;;;;18.95;16.95;;;;;;;12.21;100.00;97065.06;10369992;28;20200;-72
2022/09/06 00:53:22;;;;;;;22.67;17.60;;;;;;;12.31;100.00;97070.19;10336795;28;20707;-72
2022/09/06 00:58:24;;;;;;;18.40;15.13;;;;;;;12.37;100.00;97066.94;10351856;28;20256;-72
2022/09/06 01:03:24;;;;;;;19.23;16.23;;;;;;;12.45;100.00;97069.59;10369316;28;20189;-72
2022/09/06 01:08:46;;;;;;;19.23;15.35;;;;;;;12.56;100.00;97072.94;10352951;28;20204;-73
2022/09/06 01:14:21;;;;;;;22.67;17.05;;;;;;;12.48;100.00;97066.66;10369947;28;20716;-73
2022/09/06 01:19:39;;;;;;;17.27;15.10;;;;;;;12.51;100.00;97065.53;10370274;28;20185;-72
2022/09/06 01:25:07;;;;;;;16.25;14.50;;;;;;;12.42;100.00;97062.03;10352622;28;20289;-73
2022/09/06 01:30:12;;;;;;;20.42;15.57;;;;;;;12.38;100.00;97065.97;10363105;28;20229;-72
2022/09/06 01:35:21;;;;;;;19.98;17.63;;;;;;;12.51;100.00;97069.94;10352140;28;20217;-72
2022/09/06 01:40:21;;;;;;;20.17;17.48;;;;;;;12.52;100.00;97061.09;10352070;28;20193;-72
2022/09/06 01:45:40;;;;;;;24.10;17.63;;;;;;;12.59;100.00;97060.28;10369416;28;20559;-72
2022/09/06 01:51:02;;;;;;;20.90;15.15;;;;;;;12.64;100.00;97054.53;10368290;28;20233;-72
2022/09/06 01:56:30;;;;;;;18.83;16.95;;;;;;;12.76;100.00;97048.00;10368583;28;20747;-72
2022/09/06 02:01:37;;;;;;;15.32;13.77;;;;;;;12.75;100.00;97056.84;10368463;28;20235;-73
2022/09/06 02:06:41;;;;;;;17.52;15.63;;;;;;;12.73;100.00;97048.31;10351651;28;20580;-74
2022/09/06 02:11:47;;;;;;;18.38;15.77;;;;;;;12.51;100.00;97055.00;10350675;28;20713;-72
2022/09/06 02:16:49;;;;;;;19.73;17.42;;;;;;;12.65;100.00;97050.94;10350759;28;20709;-74
2022/09/06 02:21:51;;;;;;;19.17;16.95;;;;;;;12.81;100.00;97058.03;10368711;28;20512;-74
2022/09/06 02:26:51;;;;;;;18.63;16.52;;;;;;;12.81;100.00;97056.22;10368523;28;20192;-74
2022/09/06 02:31:57;;;;;;;17.98;16.10;;;;;;;12.72;100.00;97054.53;10368071;28;20220;-73
2022/09/06 02:36:58;;;;;;;16.42;14.75;;;;;;;12.80;100.00;97056.38;10343346;28;20954;-72
2022/09/06 02:42:00;;;;;;;17.88;15.60;;;;;;;12.79;100.00;97050.28;10368371;28;20224;-73
2022/09/06 02:47:02;;;;;;;20.60;18.50;;;;;;;12.76;100.00;97058.50;10350519;28;20332;-72
2022/09/06 02:52:02;;;;;;;20.73;18.50;;;;;;;12.92;100.00;97057.69;10350491;28;20262;-73
2022/09/06 02:57:02;;;;;;;23.15;19.60;;;;;;;13.01;100.00;97059.34;10367973;28;20241;-73
2022/09/06 03:02:03;;;;;;;28.10;21.45;;;;;;;13.07;100.00;97055.25;10366703;28;20197;-73
2022/09/06 03:07:03;;;;;;;23.05;18.52;;;;;;;13.11;100.00;97061.00;10364627;28;20984;-73
2022/09/06 03:12:04;;;;;;;19.50;17.30;;;;;;;13.27;100.00;97049.66;10369535;28;20574;-72
2022/09/06 03:17:04;;;;;;;17.90;15.38;;;;;;;13.27;100.00;97044.41;10370621;28;20193;-73
2022/09/06 03:22:04;;;;;;;17.20;15.48;;;;;;;13.15;100.00;97026.31;10371058;28;20185;-73
2022/09/06 03:27:05;;;;;;;19.73;15.88;;;;;;;13.20;100.00;97015.31;10370632;28;20205;-73
2022/09/06 03:32:05;;;;;;;20.75;16.92;;;;;;;13.36;100.00;97027.66;10370141;28;20259;-72
2022/09/06 03:37:06;;;;;;;17.23;15.18;;;;;;;13.36;100.00;97025.84;10369227;28;20405;-73
2022/09/06 03:42:07;;;;;;;17.77;15.93;;;;;;;13.32;100.00;97026.31;10369179;28;20185;-72
2022/09/06 03:47:07;;;;;;;17.27;15.48;;;;;;;13.31;100.00;97024.69;10369615;28;20197;-73
2022/09/06 03:52:07;;;;;;;21.10;16.35;;;;;;;13.20;100.00;97013.50;10368799;28;20227;-73
2022/09/06 03:57:08;;;;;;;18.25;16.40;;;;;;;13.14;100.00;97013.31;10369253;28;20265;-72
2022/09/06 04:02:08;;;;;;;20.10;16.10;;;;;;;13.31;100.00;97011.53;10370665;28;20193;-72
2022/09/06 04:07:09;;;;;;;19.08;17.08;;;;;;;13.11;100.00;97003.13;10373158;28;20220;-72
2022/09/06 04:12:09;;;;;;;19.00;16.98;;;;;;;13.06;100.00;97005.44;10372745;28;20221;-73
2022/09/06 04:17:09;;;;;;;19.98;17.88;;;;;;;13.12;100.00;97010.84;10372567;28;20204;-73
2022/09/06 04:22:10;;;;;;;22.25;16.98;;;;;;;13.08;100.00;97014.81;10372315;28;20288;-73
2022/09/06 04:27:10;;;;;;;23.73;18.83;;;;;;;12.88;100.00;97013.50;10371852;28;20189;-72
2022/09/06 04:32:10;;;;;;;23.23;18.73;;;;;;;12.94;100.00;97013.66;10372076;28;20311;-73
2022/09/06 04:37:11;;;;;;;23.23;17.67;;;;;;;13.01;100.00;97009.38;10372095;28;20217;-72
2022/09/06 04:42:12;;;;;;;19.83;17.70;;;;;;;13.13;100.00;96996.72;10371283;28;20224;-72
2022/09/06 04:47:14;;;;;;;24.30;19.30;;;;;;;13.09;100.00;96987.50;10371743;28;20189;-73
2022/09/06 04:52:14;;;;;;;19.60;16.10;;;;;;;13.23;100.00;96996.56;10353206;28;20216;-72
2022/09/06 04:57:14;;;;;;;18.55;15.93;;;;;;;13.24;100.00;96998.19;10371013;28;20283;-73
2022/09/06 05:02:15;;;;;;;18.92;15.90;;;;;;;13.31;100.00;96991.28;10370637;28;20748;-73
2022/09/06 05:07:15;;;;;;;18.50;16.70;;;;;;;13.34;100.00;97003.34;10353538;28;20661;-72
2022/09/06 05:12:15;;;;;;;19.02;15.40;;;;;;;13.71;100.00;96999.31;10352511;28;20708;-72
2022/09/06 05:17:16;;;;;;;19.45;15.02;;;;;;;14.04;100.00;96997.38;10352711;28;20676;-72
2022/09/06 05:22:16;;;;;;;18.33;13.85;;;;;;;14.25;100.00;96993.31;10352385;28;20833;-72
2022/09/06 05:27:16;;;;;;;15.60;13.90;;;;;;;14.36;100.00;96986.81;10370042;28;20552;-73
2022/09/06 05:32:17;;;;;;;16.60;13.75;;;;;;;14.35;100.00;96985.19;10351377;28;20225;-73
2022/09/06 05:37:17;;;;;;;12.73;11.45;;;;;;;14.91;100.00;96979.72;10369458;28;20250;-73
2022/09/06 05:42:21;;;;;;;13.45;11.20;;;;;;;15.00;100.00;96985.78;10367659;28;20283;-73
2022/09/06 05:47:22;;;;;;;12.93;9.57;;;;;;;15.78;100.00;96989.00;10368107;28;20197;-72
2022/09/06 05:52:22;;;;;;;22.17;10.68;;;;;;;16.08;100.00;96965.19;10367329;28;20304;-73
2022/09/06 05:57:23;;;;;;;7.63;6.65;;;;;;;16.23;100.00;96955.41;10367497;28;20237;-73
2022/09/06 06:02:26;;;;;;;9.60;6.68;;;;;;;16.65;100.00;96945.06;10367005;28;20193;-72
2022/09/06 06:07:26;;;;;;;7.18;6.45;;;;;;;16.77;100.00;96933.78;10369382;28;20200;-72
2022/09/06 06:12:27;;;;;;;9.48;6.80;;;;;;;16.87;100.00;96924.72;10367825;28;20731;-73
2022/09/06 06:17:27;;;;;;;6.88;6.18;;;;;;;16.97;100.00;96922.56;10365739;28;20683;-72
2022/09/06 06:22:27;;;;;;;7.35;6.65;;;;;;;17.08;100.00;96913.28;10366119;28;20224;-72
2022/09/06 06:27:28;;;;;;;11.00;7.30;;;;;;;17.42;100.00;96909.03;10366919;28;20193;-72
2022/09/06 06:32:28;;;;;;;6.68;5.97;;;;;;;17.54;100.00;96910.09;10366696;28;20221;-73
2022/09/06 06:37:28;;;;;;;10.23;6.00;;;;;;;17.54;100.00;96915.41;10366772;28;20224;-72
2022/09/06 06:42:29;;;;;;;9.80;5.53;;;;;;;17.63;100.00;96921.38;10366586;28;20292;-72
2022/09/06 06:47:31;;;;;;;8.23;6.00;;;;;;;17.75;100.00;96922.44;10356192;28;20212;-72
2022/09/06 06:52:31;;;;;;;5.95;5.20;;;;;;;18.10;100.00;96900.38;10374509;28;20213;-72
2022/09/06 06:57:31;;;;;;;7.85;5.70;;;;;;;18.12;100.00;96893.84;10370296;28;20458;-72
2022/09/06 07:02:32;;;;;;;5.75;5.15;;;;;;;18.35;100.00;96882.88;10367463;28;20291;-71
2022/09/06 07:07:32;;;;;;;7.53;5.20;;;;;;;18.80;100.00;96879.66;10371634;28;20248;-72
2022/09/06 07:12:32;;;;;;;5.47;4.60;;;;;;;19.22;100.00;96874.94;10371702;28;20292;-72
2022/09/06 07:17:34;;;;;;;6.32;4.95;;;;;;;19.75;95.06;96859.84;10372247;28;20233;-72
2022/09/06 07:22:34;;;;;;;5.30;4.80;;;;;;;20.05;92.18;96862.81;10371080;28;20280;-71
2022/09/06 07:27:35;;;;;;;6.47;4.63;;;;;;;20.51;90.10;96874.19;10371098;28;20193;-72
2022/09/06 07:32:35;;;;;;;5.72;4.53;;;;;;;20.44;90.66;96886.72;10371241;28;20217;-72
2022/09/06 07:37:36;;;;;;;5.95;4.88;;;;;;;19.99;88.49;96897.44;10369602;28;20328;-73
2022/09/06 07:42:36;;;;;;;5.07;4.57;;;;;;;20.25;87.51;96886.63;10369006;28;20284;-72
2022/09/06 07:47:37;;;;;;;4.80;4.40;;;;;;;20.42;88.64;96899.44;10370010;28;20200;-72
2022/09/06 07:52:37;;;;;;;5.68;4.40;;;;;;;21.09;85.11;96883.00;10367944;28;20260;-72
2022/09/06 07:57:37;;;;;;;4.70;3.95;;;;;;;20.86;82.50;96868.44;10368333;28;20327;-72
2022/09/06 08:02:39;;;;;;;6.07;4.72;;;;;;;20.02;84.98;96894.34;10370192;28;20201;-72
2022/09/06 08:07:39;;;;;;;8.18;4.55;;;;;;;19.94;88.70;96909.50;10368682;28;20603;-73
2022/09/06 08:12:40;;;;;;;10.15;5.40;;;;;;;19.73;85.66;96885.84;10352066;28;20279;-73
2022/09/06 08:17:40;;;;;;;4.95;4.53;;;;;;;19.44;87.65;96911.88;10370350;28;20201;-72
2022/09/06 08:22:41;;;;;;;5.10;4.13;;;;;;;19.21;87.25;96899.06;10369292;28;20280;-72
2022/09/06 08:27:41;;;;;;;6.93;5.45;;;;;;;19.31;87.41;96910.09;10351631;28;20200;-73
2022/09/06 08:32:41;;;;;;;8.57;5.32;;;;;;;19.10;89.14;96910.31;10369031;28;20224;-73
2022/09/06 08:37:42;;;;;;;8.55;6.78;;;;;;;19.47;87.15;96898.19;10368306;28;20699;-73
2022/09/06 08:42:42;;;;;;;9.27;5.75;;;;;;;19.97;83.03;96873.72;10367705;28;20189;-72
2022/09/06 08:47:43;;;;;;;7.43;5.13;;;;;;;20.11;83.55;96883.25;10368352;28;20255;-73
2022/09/06 08:53:09;;;;;;;5.75;4.55;;;;;;;20.76;79.06;96838.81;10349628;28;20652;-73
2022/09/06 08:58:20;;;;;;;5.57;4.57;;;;;;;21.14;77.50;96835.97;10333294;28;20256;-72
2022/09/06 09:03:24;;;;;;;7.93;4.72;;;;;;;20.70;79.63;96856.47;10350367;28;20193;-72
2022/09/06 09:08:54;;;;;;;8.50;4.35;;;;;;;20.42;78.20;96843.56;10348707;28;20198;-72
2022/09/06 09:13:58;;;;;;;5.60;4.57;;;;;;;20.63;79.64;96851.16;10352670;28;20209;-72
2022/09/06 09:19:03;;;;;;;7.03;4.55;;;;;;;21.34;76.60;96821.63;10366654;28;20194;-72
2022/09/06 09:24:09;;;;;;;5.47;3.70;;;;;;;22.17;74.23;96808.69;10349593;28;20205;-72
2022/09/06 09:29:12;;;;;;;6.35;4.47;;;;;;;21.75;75.17;96824.69;10363292;28;20272;-72
2022/09/06 09:34:14;;;;;;;10.13;4.63;;;;;;;21.38;75.65;96820.97;10364081;28;20663;-71
2022/09/06 09:39:14;;;;;;;5.20;4.63;;;;;;;21.53;75.93;96812.63;10348251;28;20564;-72
2022/09/06 09:44:18;;;;;;;6.70;4.43;;;;;;;21.32;75.21;96789.88;10364957;28;20196;-72
2022/09/06 09:49:21;;;;;;;4.40;3.95;;;;;;;21.95;74.81;96795.88;10365041;28;20217;-72
2022/09/06 09:54:34;;;;;;;4.47;3.60;;;;;;;22.43;71.94;96770.97;10365660;28;20698;-72
2022/09/06 09:59:42;;;;;;;4.88;3.42;;;;;;;22.88;70.27;96744.69;10364450;28;20229;-72
2022/09/06 10:04:44;;;;;;;3.63;3.33;;;;;;;23.21;68.62;96737.94;10365198;28;20197;-72
2022/09/06 10:09:57;;;;;;;4.30;3.42;;;;;;;23.79;67.48;96720.84;10347026;28;20308;-72
2022/09/06 10:14:57;;;;;;;4.88;3.45;;;;;;;23.96;65.84;96698.69;10364418;28;20226;-73
2022/09/06 10:20:07;;;;;;;7.13;3.22;;;;;;;23.35;64.21;96664.41;10369320;28;20661;-72
2022/09/06 10:25:25;;;;;;;4.38;3.60;;;;;;;23.83;64.57;96689.88;10356396;28;20189;-73
2022/09/06 10:30:28;;;;;;;4.70;3.20;;;;;;;23.95;66.47;96715.78;10372736;28;20654;-72
2022/09/06 10:35:37;;;;;;;5.60;3.60;;;;;;;24.00;64.60;96689.13;10354723;28;20575;-72
2022/09/06 10:40:44;;;;;;;5.22;3.28;;;;;;;24.36;63.07;96673.59;10353809;28;20297;-72
2022/09/06 10:45:58;;;;;;;4.93;3.20;;;;;;;24.46;63.12;96684.47;10372847;28;20240;-76
2022/09/06 10:51:20;;;;;;;5.30;3.58;;;;;;;24.93;62.69;96683.22;10358041;28;20720;-76
2022/09/06 10:56:46;;;;;;;4.45;3.35;;;;;;;25.26;62.39;96684.16;10357009;28;20237;-77
2022/09/06 11:02:01;;;;;;;5.53;3.13;;;;;;;24.72;62.43;96682.97;10358233;28;20221;-76
2022/09/06 11:07:05;;;;;;;4.40;3.10;;;;;;;25.36;59.66;96636.03;10358375;28;20209;-76
2022/09/06 11:12:17;;;;;;;4.80;2.85;;;;;;;24.36;60.58;96642.28;10354890;28;20369;-78
2022/09/06 11:17:44;;;;;;;5.43;3.60;;;;;;;23.84;62.86;96669.28;10354922;28;20198;-77
2022/09/06 11:22:51;;;;;;;4.03;3.33;;;;;;;24.45;60.96;96661.41;10347460;28;20221;-77
2022/09/06 11:27:56;;;;;;;3.55;3.00;;;;;;;24.01;62.39;96670.16;10370607;28;20213;-77
2022/09/06 11:33:08;;;;;;;4.85;3.33;;;;;;;24.66;60.10;96651.00;10352164;28;20217;-77
2022/09/06 11:38:15;;;;;;;5.00;3.47;;;;;;;25.02;59.19;96643.41;10352856;28;20232;-78
2022/09/06 11:43:38;;;;;;;4.20;3.47;;;;;;;24.78;60.26;96649.03;10369747;28;20268;-77
2022/09/06 11:49:00;;;;;;;8.57;3.20;;;;;;;26.11;56.50;96609.28;10356488;28;20587;-77
2022/09/06 11:54:20;;;;;;;7.68;3.75;;;;;;;25.20;58.89;96631.53;10368865;28;20202;-76
2022/09/06 11:59:29;;;;;;;3.97;3.58;;;;;;;25.28;58.94;96631.91;10370308;28;20241;-77
2022/09/06 12:04:57;;;;;;;11.82;3.70;;;;;;;25.03;59.24;96615.53;10351580;28;20271;-76
2022/09/06 12:10:22;;;;;;;4.00;3.45;;;;;;;25.49;60.10;96661.63;10369531;28;20611;-77
2022/09/06 12:15:23;;;;;;;6.25;3.47;;;;;;;26.23;57.46;96625.19;10350896;28;20268;-76
2022/09/06 12:20:52;;;;;;;4.65;3.72;;;;;;;26.73;56.10;96620.38;10320604;28;20566;-77
2022/09/06 12:25:53;;;;;;;4.93;3.42;;;;;;;25.95;56.45;96604.84;10373346;28;20562;-77
2022/09/06 12:30:54;;;;;;;4.45;3.67;;;;;;;24.31;61.46;96652.13;10365247;28;20697;-77
2022/09/06 12:36:12;;;;;;;9.48;4.80;;;;;;;23.88;63.64;96675.00;10365860;28;20224;-76
2022/09/06 12:41:12;;;;;;;10.32;4.97;;;;;;;22.10;67.60;96704.75;10349770;28;20283;-76
2022/09/06 12:46:13;;;;;;;6.07;4.45;;;;;;;21.70;69.60;96727.50;10346363;28;20276;-75
2022/09/06 12:51:20;;;;;;;7.22;5.18;;;;;;;21.18;72.41;96759.13;10347952;28;20236;-76
2022/09/06 12:56:22;;;;;;;8.07;5.65;;;;;;;20.90;73.98;96788.91;10347659;28;20245;-73
2022/09/06 13:01:31;;;;;;;8.10;6.30;;;;;;;20.64;75.66;96799.56;10367084;28;20478;-73
2022/09/06 13:06:44;;;;;;;7.72;5.63;;;;;;;20.39;78.50;96812.06;10350108;28;20220;-73
2022/09/06 13:11:48;;;;;;;9.20;5.75;;;;;;;20.52;77.93;96798.66;10349014;28;20308;-72
2022/09/06 13:16:50;;;;;;;7.07;5.55;;;;;;;20.41;78.02;96794.03;10348706;28;20728;-73
2022/09/06 13:21:51;;;;;;;8.20;6.07;;;;;;;20.07;80.51;96822.72;10367112;28;20268;-73
2022/09/06 13:26:51;;;;;;;8.05;7.25;;;;;;;19.87;82.22;96830.81;10365410;28;20193;-73
2022/09/06 13:31:55;;;;;;;10.38;7.05;;;;;;;19.45;86.14;96873.69;10349693;28;20876;-73
2022/09/06 13:37:04;;;;;;;6.07;5.47;;;;;;;18.98;96.03;96902.16;10344480;28;20815;-73
2022/09/06 13:42:09;;;;;;;8.35;6.57;;;;;;;16.88;100.00;96931.66;10331099;28;20186;-75
2022/09/06 13:47:09;;;;;;;10.30;7.43;;;;;;;16.17;100.00;96942.94;10348645;28;20193;-75
2022/09/06 13:52:10;;;;;;;14.65;9.07;;;;;;;15.91;100.00;96960.13;10364048;28;20213;-78
2022/09/06 13:57:10;;;;;;;11.75;7.70;;;;;;;15.76;100.00;96970.66;10362339;28;20236;-79
2022/09/06 14:02:14;;;;;;;12.73;8.68;;;;;;;15.64;100.00;96983.50;10377419;28;20189;-83
2022/09/06 14:07:25;;;;;;;;;;;;;;;;;;;;;
2022/09/06 14:12:42;;;;;;;14.25;8.68;;;;;;;15.69;100.00;96978.47;10365376;28;20211;-85
2022/09/06 14:17:43;;;;;;;10.48;7.03;;;;;;;15.65;100.00;96971.94;10367577;28;20209;-83
2022/09/06 14:22:43;;;;;;;11.13;8.48;;;;;;;15.75;100.00;96976.94;10363415;28;20189;-81
2022/09/06 14:27:47;;;;;;;9.52;8.52;;;;;;;15.85;100.00;96974.06;10366209;28;20197;-80
2022/09/06 14:32:47;;;;;;;13.15;9.98;;;;;;;16.00;100.00;96964.31;10362722;28;20209;-80
2022/09/06 14:37:48;;;;;;;12.40;10.55;;;;;;;15.98;100.00;96950.44;10365551;28;20209;-80
2022/09/06 14:42:48;;;;;;;12.68;11.30;;;;;;;16.12;100.00;96924.16;10367729;28;20197;-80
2022/09/06 14:47:48;;;;;;;15.35;10.02;;;;;;;16.26;100.00;96910.09;10365111;28;20267;-79
2022/09/06 14:52:49;;;;;;;13.70;9.88;;;;;;;16.19;100.00;96906.56;10365119;28;20228;-79
2022/09/06 14:57:52;;;;;;;14.75;11.75;;;;;;;16.18;100.00;96895.16;10345016;28;20234;-79
2022/09/06 15:02:53;;;;;;;17.38;15.02;;;;;;;16.21;100.00;96889.50;10324721;28;20284;-78
2022/09/06 15:07:53;;;;;;;14.52;13.02;;;;;;;16.32;100.00;96888.19;10329497;28;20202;-79
2022/09/06 15:12:54;;;;;;;21.73;15.20;;;;;;;16.47;100.00;96879.38;10351584;28;20293;-79
2022/09/06 15:17:54;;;;;;;25.23;15.82;;;;;;;16.41;100.00;96871.19;10332084;28;20285;-79
2022/09/06 15:22:56;;;;;;;23.20;15.02;;;;;;;16.43;100.00;96864.91;10331347;28;20658;-79
2022/09/06 15:27:56;;;;;;;17.50;15.68;;;;;;;16.41;100.00;96844.75;10331655;28;20221;-81
2022/09/06 15:32:57;;;;;;;21.80;17.73;;;;;;;16.39;100.00;96848.59;10313699;28;20316;-80
2022/09/06 15:37:57;;;;;;;21.23;16.15;;;;;;;16.36;100.00;96833.94;10331299;28;20615;-80
2022/09/06 15:42:57;;;;;;;19.50;16.95;;;;;;;16.43;100.00;96831.31;10330902;28;20200;-80
2022/09/06 15:47:58;;;;;;;16.25;14.65;;;;;;;16.57;100.00;96811.94;10330972;28;20543;-80
2022/09/06 15:52:58;;;;;;;18.15;14.63;;;;;;;16.64;100.00;96803.22;10330657;28;20222;-80
2022/09/06 15:57:58;;;;;;;28.75;23.92;;;;;;;16.65;100.00;96797.75;10348956;28;20241;-79
2022/09/06 16:02:59;;;;;;;18.45;16.60;;;;;;;16.63;100.00;96793.66;10370709;28;20279;-77
2022/09/06 16:07:59;;;;;;;17.67;15.45;;;;;;;16.67;100.00;96795.72;10370549;28;20288;-78
2022/09/06 16:13:00;;;;;;;17.35;15.57;;;;;;;16.67;100.00;96795.72;10370353;28;20240;-79
2022/09/06 16:18:03;;;;;;;20.45;14.93;;;;;;;16.68;100.00;96796.56;10369324;28;20287;-79
2022/09/06 16:23:04;;;;;;;19.83;17.83;;;;;;;16.59;100.00;96803.81;10369228;28;20688;-79
2022/09/06 16:28:11;;;;;;;14.75;13.35;;;;;;;16.75;100.00;96808.81;10369811;28;20193;-78
2022/09/06 16:33:12;;;;;;;16.35;14.43;;;;;;;16.88;100.00;96802.81;10350060;28;20454;-79
2022/09/06 16:38:13;;;;;;;15.60;14.10;;;;;;;16.97;100.00;96815.88;10367000;28;20286;-78
2022/09/06 16:43:13;;;;;;;16.08;14.52;;;;;;;17.06;100.00;96820.84;10371771;28;20184;-79
2022/09/06 16:48:13;;;;;;;13.65;12.23;;;;;;;17.01;100.00;96823.22;10388712;28;20200;-79
2022/09/06 16:53:14;;;;;;;16.35;11.57;;;;;;;17.15;100.00;96818.03;10387960;28;20229;-79
2022/09/06 16:58:14;;;;;;;10.13;9.00;;;;;;;16.64;100.00;96788.16;10383198;28;20233;-78
2022/09/06 17:03:14;;;;;;;11.90;10.80;;;;;;;16.73;100.00;96792.28;10367893;28;20236;-79
2022/09/06 17:08:15;;;;;;;8.93;8.05;;;;;;;17.02;100.00;96792.31;10366941;28;20272;-77
2022/09/06 17:13:15;;;;;;;28.83;17.33;;;;;;;16.99;100.00;96784.75;10365538;28;20283;-78
2022/09/06 17:18:15;;;;;;;21.27;12.45;;;;;;;16.88;100.00;96783.47;10364686;28;20622;-75
2022/09/06 17:23:16;;;;;;;11.45;8.93;;;;;;;16.84;100.00;96790.13;10366801;28;20861;-76
2022/09/06 17:28:16;;;;;;;19.70;12.32;;;;;;;16.30;100.00;96789.75;10365557;28;20197;-75
2022/09/06 17:33:17;;;;;;;11.35;9.50;;;;;;;16.04;100.00;96792.97;10365252;28;20236;-75
2022/09/06 17:38:18;;;;;;;10.32;7.93;;;;;;;15.89;100.00;96800.94;10366388;28;20221;-75
2022/09/06 17:43:18;;;;;;;9.15;7.90;;;;;;;15.59;100.00;96802.81;10365425;28;20272;-75
2022/09/06 17:48:19;;;;;;;8.77;7.90;;;;;;;15.36;100.00;96819.63;10365963;28;20292;-75
2022/09/06 17:53:19;;;;;;;10.57;8.55;;;;;;;15.24;100.00;96831.66;10365085;28;20224;-75
2022/09/06 17:58:19;;;;;;;15.27;10.20;;;;;;;15.19;100.00;96840.13;10367612;28;20276;-74
2022/09/06 18:03:20;;;;;;;11.98;8.10;;;;;;;15.01;100.00;96847.56;10366458;28;20205;-74
2022/09/06 18:08:21;;;;;;;10.73;9.63;;;;;;;14.95;100.00;96849.94;10366358;28;20204;-73
2022/09/06 18:13:22;;;;;;;11.30;8.70;;;;;;;14.93;100.00;96853.75;10365046;28;20225;-74
2022/09/06 18:18:22;;;;;;;9.43;8.43;;;;;;;14.86;100.00;96845.75;10365863;28;20633;-74
2022/09/06 18:23:22;;;;;;;9.02;8.13;;;;;;;14.79;100.00;96842.19;10365659;28;20204;-74
2022/09/06 18:28:24;;;;;;;10.18;9.07;;;;;;;14.77;100.00;96846.81;10365395;28;20197;-73
2022/09/06 18:33:24;;;;;;;12.60;9.20;;;;;;;14.74;100.00;96836.63;10365423;28;20220;-74
2022/09/06 18:38:25;;;;;;;11.18;8.77;;;;;;;14.67;100.00;96823.34;10366766;28;20603;-73
2022/09/06 18:43:28;;;;;;;13.35;8.60;;;;;;;14.59;100.00;96832.13;10372685;28;20272;-74
2022/09/06 18:48:30;;;;;;;12.45;9.15;;;;;;;14.45;100.00;96822.34;10371559;28;20569;-73
2022/09/06 18:53:30;;;;;;;10.32;9.18;;;;;;;14.46;100.00;96824.00;10363565;28;20685;-74
2022/09/06 18:58:31;;;;;;;10.63;8.80;;;;;;;14.25;100.00;96822.84;10357523;28;20240;-74
2022/09/06 19:03:32;;;;;;;10.50;9.48;;;;;;;14.03;100.00;96829.78;10347754;28;20236;-75
2022/09/06 19:08:32;;;;;;;10.45;9.40;;;;;;;13.98;100.00;96826.00;10350919;28;20298;-74
2022/09/06 19:13:35;;;;;;;14.07;9.75;;;;;;;13.90;100.00;96848.78;10351467;28;20222;-74
2022/09/06 19:18:35;;;;;;;11.85;10.25;;;;;;;13.73;100.00;96847.22;10350184;28;20210;-74
2022/09/06 19:23:38;;;;;;;12.48;11.18;;;;;;;13.59;100.00;96847.97;10353814;28;20265;-74
2022/09/06 19:28:39;;;;;;;12.82;10.65;;;;;;;13.54;100.00;96859.03;10350519;28;20198;-74
2022/09/06 19:33:43;;;;;;;15.77;10.23;;;;;;;13.50;100.00;96850.63;10343836;28;20276;-74
2022/09/06 19:38:44;;;;;;;13.75;10.73;;;;;;;13.40;100.00;96849.19;10361969;28;20228;-75
2022/09/06 19:43:49;;;;;;;11.88;10.68;;;;;;;13.26;100.00;96854.16;10351318;28;20729;-75
2022/09/06 19:48:50;;;;;;;9.80;8.90;;;;;;;13.20;100.00;96839.88;10320231;28;20228;-75
2022/09/06 19:53:52;;;;;;;15.77;9.82;;;;;;;13.09;100.00;96842.03;10362744;28;20224;-74
2022/09/06 19:58:54;;;;;;;12.85;9.13;;;;;;;12.88;100.00;96830.28;10344517;28;20232;-75
2022/09/06 20:03:54;;;;;;;14.63;9.95;;;;;;;12.88;100.00;96842.56;10370619;28;20268;-74
2022/09/06 20:08:56;;;;;;;10.10;9.10;;;;;;;12.91;100.00;96840.47;10370220;28;20189;-74
2022/09/06 20:13:56;;;;;;;15.13;10.95;;;;;;;12.80;100.00;96833.75;10353992;28;20220;-74
2022/09/06 20:18:57;;;;;;;14.35;12.15;;;;;;;12.72;100.00;96830.28;10334676;28;20228;-74
2022/09/06 20:23:58;;;;;;;12.93;10.15;;;;;;;12.70;100.00;96827.03;10369149;28;20652;-74
2022/09/06 20:29:00;;;;;;;14.73;10.60;;;;;;;12.64;100.00;96831.13;10368930;28;20267;-74
2022/09/06 20:34:01;;;;;;;13.60;10.63;;;;;;;12.89;100.00;96825.81;10370419;28;20722;-74
2022/09/06 20:39:02;;;;;;;13.50;10.07;;;;;;;13.09;100.00;96816.53;10372420;28;20737;-73
2022/09/06 20:44:02;;;;;;;10.70;8.38;;;;;;;13.25;100.00;96794.63;10385388;28;20225;-73
2022/09/06 20:49:03;;;;;;;9.43;7.78;;;;;;;13.33;100.00;96778.84;10392173;28;20657;-74
2022/09/06 20:54:04;;;;;;;10.30;9.25;;;;;;;13.37;100.00;96763.53;10369582;28;20628;-73
2022/09/06 20:59:10;;;;;;;9.23;8.32;;;;;;;13.31;100.00;96743.16;10369952;28;20716;-73
2022/09/06 21:04:12;;;;;;;10.73;9.00;;;;;;;13.32;100.00;96742.13;10368127;28;20268;-73
2022/09/06 21:09:13;;;;;;;10.63;8.38;;;;;;;13.36;100.00;96725.06;10383707;28;20659;-73
2022/09/06 21:14:13;;;;;;;9.65;7.85;;;;;;;13.31;100.00;96715.03;10351130;28;20224;-73
2022/09/06 21:19:14;;;;;;;10.20;9.20;;;;;;;13.35;100.00;96710.25;10369640;28;20189;-73
2022/09/06 21:24:14;;;;;;;9.63;8.73;;;;;;;13.35;100.00;96703.19;10368845;28;20652;-74
2022/09/06 21:29:14;;;;;;;13.15;8.90;;;;;;;13.33;100.00;96699.06;10368889;28;20288;-74
2022/09/06 21:34:15;;;;;;;8.77;7.93;;;;;;;13.32;100.00;96700.03;10368603;28;20225;-74
2022/09/06 21:39:15;;;;;;;10.35;9.10;;;;;;;13.27;100.00;96697.94;10368571;28;20247;-74
2022/09/06 21:44:15;;;;;;;11.50;8.23;;;;;;;13.31;100.00;96693.16;10367953;28;20186;-74
2022/09/06 21:49:16;;;;;;;9.98;8.98;;;;;;;13.26;100.00;96695.47;10351066;28;20284;-74
2022/09/06 21:54:16;;;;;;;10.82;8.60;;;;;;;13.28;100.00;96690.88;10367284;28;20217;-73
2022/09/06 21:59:17;;;;;;;9.82;8.50;;;;;;;13.17;100.00;96682.38;10368014;28;20601;-74
2022/09/06 22:04:18;;;;;;;10.38;8.65;;;;;;;13.09;100.00;96673.72;10367958;28;20259;-74
2022/09/06 22:09:18;;;;;;;9.23;8.32;;;;;;;12.97;100.00;96687.25;10367634;28;20189;-74
2022/09/06 22:14:19;;;;;;;15.57;9.50;;;;;;;12.89;100.00;96668.06;10366856;28;20565;-73
2022/09/06 22:19:19;;;;;;;10.07;9.00;;;;;;;12.65;100.00;96673.25;10367490;28;20199;-74
2022/09/06 22:24:19;;;;;;;11.82;8.43;;;;;;;12.43;100.00;96682.69;10367125;28;20216;-73
2022/09/06 22:29:20;;;;;;;10.75;8.85;;;;;;;12.56;100.00;96686.63;10367462;28;20192;-73
2022/09/06 22:34:20;;;;;;;10.25;9.20;;;;;;;12.71;100.00;96690.19;10366883;28;20299;-73
2022/09/06 22:39:20;;;;;;;11.05;9.98;;;;;;;13.06;100.00;96684.56;10367667;28;20212;-74
2022/09/06 22:44:21;;;;;;;11.18;10.07;;;;;;;13.24;100.00;96684.31;10366307;28;20189;-73
2022/09/06 22:49:21;;;;;;;11.85;10.13;;;;;;;13.42;100.00;96682.25;10367151;28;20344;-74
2022/09/06 22:54:21;;;;;;;12.20;8.90;;;;;;;13.63;100.00;96670.25;10366311;28;20189;-74
2022/09/06 22:59:22;;;;;;;11.88;9.38;;;;;;;13.68;100.00;96666.09;10366562;28;20728;-73
2022/09/06 23:04:22;;;;;;;11.30;10.02;;;;;;;13.63;100.00;96652.66;10366561;28;20637;-73